sensor_id;sensor_type;location;lat;lon;timestamp;P1;durP1;ratioP1;P2;durP2;ratioP2
66609;SDS011;53468;48.276;14.416;2023-03-29T00:00:02;7.00;;;2.10;;
66609;SDS011;53468;48.276;14.416;2023-03-29T00:05:10;3.28;;;1.58;;
66609;SDS011;53468;48.276;14.416;2023-03-29T00:10:16;5.47;;;1.70;;
66609;SDS011;53468;48.276;14.416;2023-03-29T00:15:22;11.82;;;2.25;;
66609;SDS011;53468;48.276;14.416;2023-03-29T00:20:31;6.40;;;1.80;;
66609;SDS011;53468;48.276;14.416;2023-03-29T00:25:42;5.07;;;2.03;;
66609;SDS011;53468;48.276;14.416;2023-03-29T00:30:48;9.63;;;1.85;;
66609;SDS011;53468;48.276;14.416;2023-03-29T00:35:52;3.75;;;1.65;;
66609;SDS011;53468;48.276;14.416;2023-03-29T00:41:02;3.63;;;1.40;;
66609;SDS011;53468;48.276;14.416;2023-03-29T00:46:12;3.75;;;1.88;;
66609;SDS011;53468;48.276;14.416;2023-03-29T00:56:47;4.60;;;1.48;;
66609;SDS011;53468;48.276;14.416;2023-03-29T01:01:55;6.65;;;2.50;;
66609;SDS011;53468;48.276;14.416;2023-03-29T01:07:03;4.75;;;1.70;;
66609;SDS011;53468;48.276;14.416;2023-03-29T01:12:12;3.45;;;1.92;;
66609;SDS011;53468;48.276;14.416;2023-03-29T01:17:21;5.57;;;2.00;;
66609;SDS011;53468;48.276;14.416;2023-03-29T01:22:27;2.38;;;1.20;;
66609;SDS011;53468;48.276;14.416;2023-03-29T01:27:45;3.47;;;1.75;;
66609;SDS011;53468;48.276;14.416;2023-03-29T01:32:53;6.47;;;1.90;;
66609;SDS011;53468;48.276;14.416;2023-03-29T01:38:00;6.97;;;1.70;;
66609;SDS011;53468;48.276;14.416;2023-03-29T01:43:13;3.60;;;1.90;;
66609;SDS011;53468;48.276;14.416;2023-03-29T01:48:23;6.65;;;2.15;;
66609;SDS011;53468;48.276;14.416;2023-03-29T01:53:32;4.93;;;1.75;;
66609;SDS011;53468;48.276;14.416;2023-03-29T01:58:43;6.45;;;1.73;;
66609;SDS011;53468;48.276;14.416;2023-03-29T02:03:50;6.45;;;2.00;;
66609;SDS011;53468;48.276;14.416;2023-03-29T02:08:56;4.30;;;1.52;;
66609;SDS011;53468;48.276;14.416;2023-03-29T02:14:04;11.45;;;1.88;;
66609;SDS011;53468;48.276;14.416;2023-03-29T02:19:09;6.50;;;1.88;;
66609;SDS011;53468;48.276;14.416;2023-03-29T02:24:15;3.97;;;1.67;;
66609;SDS011;53468;48.276;14.416;2023-03-29T02:29:22;6.93;;;2.13;;
66609;SDS011;53468;48.276;14.416;2023-03-29T02:34:28;5.72;;;1.90;;
66609;SDS011;53468;48.276;14.416;2023-03-29T02:39:33;3.83;;;1.70;;
66609;SDS011;53468;48.276;14.416;2023-03-29T02:44:39;4.88;;;2.30;;
66609;SDS011;53468;48.276;14.416;2023-03-29T02:49:43;5.20;;;1.75;;
66609;SDS011;53468;48.276;14.416;2023-03-29T02:54:50;4.07;;;1.60;;
66609;SDS011;53468;48.276;14.416;2023-03-29T02:59:57;5.75;;;1.55;;
66609;SDS011;53468;48.276;14.416;2023-03-29T03:05:09;3.38;;;1.42;;
66609;SDS011;53468;48.276;14.416;2023-03-29T03:10:28;3.38;;;1.27;;
66609;SDS011;53468;48.276;14.416;2023-03-29T03:15:37;2.30;;;1.40;;
66609;SDS011;53468;48.276;14.416;2023-03-29T03:20:42;3.28;;;1.20;;
66609;SDS011;53468;48.276;14.416;2023-03-29T03:31:30;3.55;;;1.65;;
66609;SDS011;53468;48.276;14.416;2023-03-29T03:36:34;4.63;;;1.63;;
66609;SDS011;53468;48.276;14.416;2023-03-29T03:41:41;3.42;;;1.73;;
66609;SDS011;53468;48.276;14.416;2023-03-29T03:46:48;3.40;;;1.40;;
66609;SDS011;53468;48.276;14.416;2023-03-29T03:51:55;3.83;;;1.50;;
66609;SDS011;53468;48.276;14.416;2023-03-29T03:57:05;5.22;;;2.30;;
66609;SDS011;53468;48.276;14.416;2023-03-29T04:02:13;3.95;;;1.75;;
66609;SDS011;53468;48.276;14.416;2023-03-29T04:07:17;7.75;;;2.42;;
66609;SDS011;53468;48.276;14.416;2023-03-29T04:12:20;2.95;;;1.40;;
66609;SDS011;53468;48.276;14.416;2023-03-29T04:17:27;4.03;;;1.60;;
66609;SDS011;53468;48.276;14.416;2023-03-29T04:32:57;3.20;;;1.65;;
66609;SDS011;53468;48.276;14.416;2023-03-29T04:38:01;3.03;;;1.77;;
66609;SDS011;53468;48.276;14.416;2023-03-29T04:43:12;5.25;;;2.05;;
66609;SDS011;53468;48.276;14.416;2023-03-29T04:48:17;5.75;;;1.58;;
66609;SDS011;53468;48.276;14.416;2023-03-29T04:53:25;7.32;;;1.83;;
66609;SDS011;53468;48.276;14.416;2023-03-29T04:58:29;7.47;;;2.20;;
66609;SDS011;53468;48.276;14.416;2023-03-29T05:03:35;5.05;;;2.25;;
66609;SDS011;53468;48.276;14.416;2023-03-29T05:08:44;7.35;;;1.98;;
66609;SDS011;53468;48.276;14.416;2023-03-29T05:13:50;4.00;;;1.50;;
66609;SDS011;53468;48.276;14.416;2023-03-29T05:18:59;5.80;;;1.70;;
66609;SDS011;53468;48.276;14.416;2023-03-29T05:24:07;7.88;;;1.83;;
66609;SDS011;53468;48.276;14.416;2023-03-29T05:29:14;8.13;;;1.70;;
66609;SDS011;53468;48.276;14.416;2023-03-29T05:34:26;7.47;;;2.10;;
66609;SDS011;53468;48.276;14.416;2023-03-29T05:39:52;8.55;;;2.15;;
66609;SDS011;53468;48.276;14.416;2023-03-29T05:44:59;6.10;;;2.33;;
66609;SDS011;53468;48.276;14.416;2023-03-29T05:50:14;9.82;;;2.50;;
66609;SDS011;53468;48.276;14.416;2023-03-29T05:55:24;9.07;;;2.85;;
66609;SDS011;53468;48.276;14.416;2023-03-29T06:00:35;7.50;;;2.73;;
66609;SDS011;53468;48.276;14.416;2023-03-29T06:05:49;7.55;;;2.95;;
66609;SDS011;53468;48.276;14.416;2023-03-29T06:11:00;6.68;;;2.85;;
66609;SDS011;53468;48.276;14.416;2023-03-29T06:16:17;7.72;;;2.22;;
66609;SDS011;53468;48.276;14.416;2023-03-29T06:21:26;5.20;;;2.78;;
66609;SDS011;53468;48.276;14.416;2023-03-29T06:26:40;10.07;;;3.03;;
66609;SDS011;53468;48.276;14.416;2023-03-29T06:31:45;4.85;;;2.42;;
66609;SDS011;53468;48.276;14.416;2023-03-29T06:36:53;9.15;;;2.58;;
66609;SDS011;53468;48.276;14.416;2023-03-29T06:42:11;8.90;;;2.90;;
66609;SDS011;53468;48.276;14.416;2023-03-29T06:47:19;4.93;;;2.92;;
66609;SDS011;53468;48.276;14.416;2023-03-29T06:52:39;10.00;;;2.47;;
66609;SDS011;53468;48.276;14.416;2023-03-29T06:57:48;5.22;;;2.40;;
66609;SDS011;53468;48.276;14.416;2023-03-29T07:02:54;9.63;;;1.90;;
66609;SDS011;53468;48.276;14.416;2023-03-29T07:08:02;6.90;;;2.17;;
66609;SDS011;53468;48.276;14.416;2023-03-29T07:13:19;6.90;;;2.42;;
66609;SDS011;53468;48.276;14.416;2023-03-29T07:18:25;4.00;;;2.15;;
66609;SDS011;53468;48.276;14.416;2023-03-29T07:23:34;8.30;;;2.50;;
66609;SDS011;53468;48.276;14.416;2023-03-29T07:28:39;9.38;;;3.53;;
66609;SDS011;53468;48.276;14.416;2023-03-29T07:33:57;6.40;;;2.50;;
66609;SDS011;53468;48.276;14.416;2023-03-29T07:39:07;8.05;;;2.85;;
66609;SDS011;53468;48.276;14.416;2023-03-29T07:44:13;7.18;;;3.33;;
66609;SDS011;53468;48.276;14.416;2023-03-29T07:49:17;7.55;;;2.53;;
66609;SDS011;53468;48.276;14.416;2023-03-29T07:54:23;13.63;;;2.50;;
66609;SDS011;53468;48.276;14.416;2023-03-29T07:59:31;4.35;;;2.30;;
66609;SDS011;53468;48.276;14.416;2023-03-29T08:04:39;7.57;;;3.53;;
66609;SDS011;53468;48.276;14.416;2023-03-29T08:09:45;6.00;;;2.35;;
66609;SDS011;53468;48.276;14.416;2023-03-29T08:14:48;6.55;;;3.08;;
66609;SDS011;53468;48.276;14.416;2023-03-29T08:19:51;3.88;;;2.30;;
66609;SDS011;53468;48.276;14.416;2023-03-29T08:24:57;5.30;;;2.42;;
66609;SDS011;53468;48.276;14.416;2023-03-29T08:30:02;4.65;;;2.75;;
66609;SDS011;53468;48.276;14.416;2023-03-29T08:35:08;4.72;;;2.20;;
66609;SDS011;53468;48.276;14.416;2023-03-29T08:40:18;5.45;;;2.35;;
66609;SDS011;53468;48.276;14.416;2023-03-29T08:45:27;5.38;;;2.38;;
66609;SDS011;53468;48.276;14.416;2023-03-29T08:50:42;4.53;;;2.50;;
66609;SDS011;53468;48.276;14.416;2023-03-29T08:55:51;4.60;;;2.80;;
66609;SDS011;53468;48.276;14.416;2023-03-29T09:00:59;7.33;;;2.83;;
66609;SDS011;53468;48.276;14.416;2023-03-29T09:06:20;7.18;;;2.45;;
66609;SDS011;53468;48.276;14.416;2023-03-29T09:11:37;8.32;;;2.90;;
66609;SDS011;53468;48.276;14.416;2023-03-29T09:16:55;5.57;;;2.70;;
66609;SDS011;53468;48.276;14.416;2023-03-29T09:22:07;6.20;;;3.30;;
66609;SDS011;53468;48.276;14.416;2023-03-29T09:33:21;5.20;;;2.78;;
66609;SDS011;53468;48.276;14.416;2023-03-29T09:57:24;5.68;;;2.17;;
66609;SDS011;53468;48.276;14.416;2023-03-29T10:03:18;5.90;;;2.40;;
66609;SDS011;53468;48.276;14.416;2023-03-29T10:08:35;5.50;;;3.00;;
66609;SDS011;53468;48.276;14.416;2023-03-29T10:14:03;5.70;;;2.80;;
66609;SDS011;53468;48.276;14.416;2023-03-29T10:19:17;5.00;;;2.42;;
66609;SDS011;53468;48.276;14.416;2023-03-29T10:24:26;6.93;;;2.70;;
66609;SDS011;53468;48.276;14.416;2023-03-29T10:29:35;5.97;;;2.65;;
66609;SDS011;53468;48.276;14.416;2023-03-29T10:34:44;7.20;;;2.80;;
66609;SDS011;53468;48.276;14.416;2023-03-29T10:39:48;8.30;;;2.80;;
66609;SDS011;53468;48.276;14.416;2023-03-29T10:45:22;5.05;;;2.40;;
66609;SDS011;53468;48.276;14.416;2023-03-29T10:50:30;7.82;;;2.58;;
66609;SDS011;53468;48.276;14.416;2023-03-29T10:55:39;4.95;;;2.38;;
66609;SDS011;53468;48.276;14.416;2023-03-29T11:01:23;3.35;;;1.90;;
66609;SDS011;53468;48.276;14.416;2023-03-29T11:06:43;3.08;;;1.95;;
66609;SDS011;53468;48.276;14.416;2023-03-29T11:12:03;3.10;;;1.92;;
66609;SDS011;53468;48.276;14.416;2023-03-29T11:17:24;3.92;;;1.65;;
66609;SDS011;53468;48.276;14.416;2023-03-29T11:22:44;4.13;;;1.67;;
66609;SDS011;53468;48.276;14.416;2023-03-29T11:28:07;3.22;;;1.60;;
66609;SDS011;53468;48.276;14.416;2023-03-29T11:33:59;3.25;;;1.42;;
66609;SDS011;53468;48.276;14.416;2023-03-29T11:39:33;5.57;;;2.13;;
66609;SDS011;53468;48.276;14.416;2023-03-29T11:44:54;3.22;;;1.30;;
66609;SDS011;53468;48.276;14.416;2023-03-29T11:50:16;2.13;;;1.25;;
66609;SDS011;53468;48.276;14.416;2023-03-29T11:55:37;3.55;;;1.40;;
66609;SDS011;53468;48.276;14.416;2023-03-29T12:01:27;3.03;;;1.50;;
66609;SDS011;53468;48.276;14.416;2023-03-29T12:07:00;5.95;;;1.95;;
66609;SDS011;53468;48.276;14.416;2023-03-29T12:12:49;2.72;;;1.65;;
66609;SDS011;53468;48.276;14.416;2023-03-29T12:18:42;3.75;;;1.30;;
66609;SDS011;53468;48.276;14.416;2023-03-29T12:24:31;2.50;;;1.40;;
66609;SDS011;53468;48.276;14.416;2023-03-29T12:30:40;2.60;;;1.60;;
66609;SDS011;53468;48.276;14.416;2023-03-29T12:36:48;2.33;;;1.42;;
66609;SDS011;53468;48.276;14.416;2023-03-29T12:42:50;2.40;;;1.27;;
66609;SDS011;53468;48.276;14.416;2023-03-29T12:49:18;2.28;;;1.38;;
66609;SDS011;53468;48.276;14.416;2023-03-29T13:13:09;2.78;;;1.48;;
66609;SDS011;53468;48.276;14.416;2023-03-29T13:18:54;2.97;;;1.50;;
66609;SDS011;53468;48.276;14.416;2023-03-29T13:24:48;2.42;;;1.50;;
66609;SDS011;53468;48.276;14.416;2023-03-29T13:42:36;3.22;;;1.50;;
66609;SDS011;53468;48.276;14.416;2023-03-29T13:54:00;4.05;;;1.70;;
66609;SDS011;53468;48.276;14.416;2023-03-29T14:06:05;3.80;;;1.85;;
66609;SDS011;53468;48.276;14.416;2023-03-29T14:12:09;3.45;;;1.90;;
66609;SDS011;53468;48.276;14.416;2023-03-29T15:43:00;5.20;;;2.40;;
66609;SDS011;53468;48.276;14.416;2023-03-29T15:49:03;3.08;;;1.95;;
66609;SDS011;53468;48.276;14.416;2023-03-29T15:55:02;6.53;;;2.65;;
66609;SDS011;53468;48.276;14.416;2023-03-29T21:08:32;10.68;;;6.80;;
66609;SDS011;53468;48.276;14.416;2023-03-29T21:13:40;10.45;;;6.68;;
66609;SDS011;53468;48.276;14.416;2023-03-29T21:18:45;10.90;;;6.72;;
66609;SDS011;53468;48.276;14.416;2023-03-29T21:24:19;14.18;;;8.40;;
66609;SDS011;53468;48.276;14.416;2023-03-29T21:29:25;12.23;;;8.68;;
66609;SDS011;53468;48.276;14.416;2023-03-29T21:34:38;12.55;;;7.47;;
66609;SDS011;53468;48.276;14.416;2023-03-29T21:41:02;10.85;;;6.45;;
66609;SDS011;53468;48.276;14.416;2023-03-29T21:46:34;11.23;;;6.88;;
66609;SDS011;53468;48.276;14.416;2023-03-29T21:57:43;12.43;;;6.90;;
66609;SDS011;53468;48.276;14.416;2023-03-29T22:03:00;13.65;;;7.28;;
66609;SDS011;53468;48.276;14.416;2023-03-29T22:08:19;11.32;;;6.90;;
66609;SDS011;53468;48.276;14.416;2023-03-29T22:14:17;15.40;;;7.88;;
66609;SDS011;53468;48.276;14.416;2023-03-29T22:19:37;9.05;;;6.53;;
66609;SDS011;53468;48.276;14.416;2023-03-29T22:24:43;14.82;;;7.85;;
66609;SDS011;53468;48.276;14.416;2023-03-29T22:30:41;12.43;;;7.68;;
66609;SDS011;53468;48.276;14.416;2023-03-29T22:36:01;12.68;;;6.82;;
66609;SDS011;53468;48.276;14.416;2023-03-29T22:41:48;12.27;;;7.78;;
66609;SDS011;53468;48.276;14.416;2023-03-29T22:53:06;11.45;;;7.53;;
66609;SDS011;53468;48.276;14.416;2023-03-29T22:58:59;11.95;;;7.95;;
66609;SDS011;53468;48.276;14.416;2023-03-29T23:04:54;15.55;;;9.15;;
66609;SDS011;53468;48.276;14.416;2023-03-29T23:10:38;13.93;;;8.90;;
66609;SDS011;53468;48.276;14.416;2023-03-29T23:15:53;16.35;;;9.38;;
66609;SDS011;53468;48.276;14.416;2023-03-29T23:21:28;14.45;;;9.63;;
66609;SDS011;53468;48.276;14.416;2023-03-29T23:26:46;15.65;;;10.43;;
66609;SDS011;53468;48.276;14.416;2023-03-29T23:32:12;14.85;;;9.43;;
66609;SDS011;53468;48.276;14.416;2023-03-29T23:37:20;25.42;;;10.77;;
66609;SDS011;53468;48.276;14.416;2023-03-29T23:42:34;13.88;;;9.65;;
66609;SDS011;53468;48.276;14.416;2023-03-29T23:52:45;14.38;;;8.13;;
66609;SDS011;53468;48.276;14.416;2023-03-29T23:58:11;13.90;;;9.13;;
